createdAt,value
2019-02-23T00:04:44.826Z,70
2019-02-23T00:09:44.573Z,67
2019-02-23T00:14:44.752Z,63
2019-02-23T00:19:44.610Z,62
2019-02-23T00:24:44.767Z,61
2019-02-23T00:29:44.445Z,67
2019-02-23T00:34:44.487Z,63
2019-02-23T00:39:44.598Z,75
2019-02-23T00:44:44.689Z,67
2019-02-23T00:49:44.551Z,62
2019-02-23T00:54:44.635Z,57
2019-02-23T00:59:44.675Z,59
2019-02-23T01:04:44.641Z,64
2019-02-23T01:09:44.711Z,63
2019-02-23T01:14:44.456Z,60
2019-02-23T01:19:47.712Z,60
2019-02-23T01:24:44.323Z,58
2019-02-23T01:29:44.672Z,63
2019-02-23T01:34:44.356Z,67
2019-02-23T01:39:44.655Z,66
2019-02-23T01:44:44.320Z,73
2019-02-23T01:49:44.419Z,65
2019-02-23T01:54:44.558Z,68
2019-02-23T01:59:44.439Z,58
2019-02-23T02:04:44.626Z,66
2019-02-23T02:09:44.504Z,68
2019-02-23T02:14:44.461Z,61
2019-02-23T02:19:44.484Z,63
2019-02-23T02:24:44.560Z,62
2019-02-23T02:29:44.416Z,57
2019-02-23T02:34:44.286Z,60
2019-02-23T02:39:44.522Z,56
2019-02-23T02:44:44.256Z,56
2019-02-23T02:49:44.209Z,58
2019-02-23T02:54:44.213Z,62
2019-02-23T02:59:44.239Z,65
2019-02-23T03:04:44.431Z,49
2019-02-23T03:09:44.224Z,58
2019-02-23T03:14:44.283Z,55
2019-02-23T03:19:44.299Z,55
2019-02-23T03:24:44.375Z,61
2019-02-23T03:29:44.146Z,57
2019-02-23T03:34:44.267Z,57
2019-02-23T03:39:44.400Z,54
2019-02-23T03:44:44.189Z,56
2019-02-23T03:49:44.437Z,56
2019-02-23T03:54:44.410Z,52
2019-02-23T03:59:44.462Z,56
2019-02-23T04:04:44.116Z,58
2019-02-23T04:09:44.368Z,53
2019-02-23T04:14:44.191Z,58
2019-02-23T04:19:44.079Z,57
2019-02-23T04:24:44.295Z,59
2019-02-23T04:29:46.938Z,58
2019-02-23T04:34:44.162Z,52
2019-02-23T04:39:44.253Z,52
2019-02-23T04:44:44.294Z,56
2019-02-23T04:49:44.234Z,65
2019-02-23T04:54:44.225Z,61
2019-02-23T04:59:44.465Z,60
2019-02-23T05:04:44.288Z,71
2019-02-23T05:09:44.177Z,45
2019-02-23T05:14:44.319Z,64
2019-02-23T05:19:44.137Z,62
2019-02-23T05:24:44.126Z,56
2019-02-23T05:29:44.157Z,53
2019-02-23T05:34:44.234Z,60
2019-02-23T05:39:44.005Z,63
2019-02-23T05:44:44.187Z,54
2019-02-23T05:49:44.049Z,58
2019-02-23T05:54:43.965Z,68
2019-02-23T05:59:44.258Z,61
2019-02-23T06:04:43.983Z,64
2019-02-23T06:09:44.001Z,56
2019-02-23T06:14:44.109Z,49
2019-02-23T06:19:44.251Z,64
2019-02-23T06:24:44.178Z,60
2019-02-23T06:29:44.128Z,62
2019-02-23T06:34:43.986Z,61
2019-02-23T06:39:43.879Z,57
2019-02-23T06:44:44.216Z,62
2019-02-23T06:49:44.061Z,52
2019-02-23T06:54:44.003Z,65
2019-02-23T06:59:43.932Z,65
2019-02-23T07:04:44.192Z,60
2019-02-23T07:09:43.919Z,54
2019-02-23T07:14:44.133Z,55
2019-02-23T07:19:43.981Z,62
2019-02-23T07:24:44.093Z,49
2019-02-23T07:29:43.992Z,57
2019-02-23T07:34:44.002Z,62
2019-02-23T07:39:43.772Z,58
2019-02-23T07:44:43.901Z,63
2019-02-23T07:49:44.135Z,57
2019-02-23T07:54:43.775Z,65
2019-02-23T07:59:44.033Z,65
2019-02-23T08:04:44.097Z,49
2019-02-23T08:09:44.018Z,53
2019-02-23T08:14:43.733Z,61
2019-02-23T08:19:43.999Z,52
2019-02-23T08:24:43.964Z,57
2019-02-23T08:29:54.147Z,56
2019-02-23T08:34:43.795Z,53
2019-02-23T08:39:44.178Z,48
2019-02-23T08:44:44.099Z,59
2019-02-23T08:49:43.802Z,55
2019-02-23T08:54:43.789Z,64
2019-02-23T08:59:43.823Z,59
2019-02-23T09:04:43.745Z,51
2019-02-23T09:09:43.991Z,48
2019-02-23T09:14:44.001Z,46
2019-02-23T09:19:43.805Z,44
2019-02-23T09:24:43.864Z,55
2019-02-23T09:29:43.615Z,59
2019-02-23T09:34:43.697Z,41
2019-02-23T09:39:43.709Z,49
2019-02-23T09:44:43.880Z,49
2019-02-23T09:49:43.627Z,41
2019-02-23T09:54:43.833Z,57
2019-02-23T09:59:43.693Z,49
2019-02-23T10:04:43.710Z,51
2019-02-23T10:09:43.790Z,48
2019-02-23T10:14:43.760Z,50
2019-02-23T10:19:43.681Z,47
2019-02-23T10:24:43.870Z,41
2019-02-23T10:29:43.754Z,50
2019-02-23T10:34:43.698Z,62
2019-02-23T10:39:43.614Z,51
2019-02-23T10:44:43.853Z,50
2019-02-23T10:49:43.548Z,41
2019-02-23T10:54:43.641Z,45
2019-02-23T10:59:43.784Z,45
2019-02-23T11:04:43.769Z,53
2019-02-23T11:09:43.643Z,45
2019-02-23T11:14:43.680Z,42
2019-02-23T11:19:43.583Z,46
2019-02-23T11:24:43.765Z,46
2019-02-23T11:29:43.749Z,47
2019-02-23T11:34:43.631Z,50
2019-02-23T11:39:43.690Z,44
2019-02-23T11:44:43.604Z,49
2019-02-23T11:49:43.479Z,39
2019-02-23T11:54:44.249Z,41
2019-02-23T11:59:43.457Z,42
2019-02-23T12:04:43.661Z,45
2019-02-23T12:09:43.434Z,41
2019-02-23T12:14:43.654Z,45
2019-02-23T12:19:43.610Z,45
2019-02-23T12:24:43.524Z,49
2019-02-23T12:29:43.434Z,41
2019-02-23T12:34:43.377Z,47
2019-02-23T12:39:43.863Z,46
2019-02-23T12:44:43.468Z,42
2019-02-23T12:49:43.425Z,49
2019-02-23T12:54:43.514Z,35
2019-02-23T12:59:43.315Z,50
2019-02-23T13:04:43.478Z,36
2019-02-23T13:09:43.556Z,34
2019-02-23T13:14:43.328Z,39
2019-02-23T13:19:43.634Z,32
2019-02-23T13:24:43.249Z,46
2019-02-23T13:29:43.496Z,49
2019-02-23T13:34:43.401Z,41
2019-02-23T13:39:43.570Z,43
2019-02-23T13:44:43.295Z,40
2019-02-23T13:49:43.288Z,33
2019-02-23T13:54:43.324Z,43
2019-02-23T13:59:43.514Z,45
2019-02-23T14:04:43.183Z,45
2019-02-23T14:09:43.474Z,34
2019-02-23T14:14:43.196Z,41
2019-02-23T14:19:43.329Z,36
2019-02-23T14:24:50.122Z,40
2019-02-23T14:29:43.366Z,35
2019-02-23T14:34:43.430Z,45
2019-02-23T14:39:43.273Z,37
2019-02-23T14:44:43.263Z,33
2019-02-23T14:49:43.491Z,36
2019-02-23T14:54:43.145Z,33
2019-02-23T14:59:43.404Z,39
2019-02-23T15:04:43.471Z,32
2019-02-23T15:09:43.477Z,33
2019-02-23T15:14:43.176Z,35
2019-02-23T15:19:43.384Z,37
2019-02-23T15:24:43.188Z,43
2019-02-23T15:29:43.207Z,34
2019-02-23T15:34:43.246Z,42
2019-02-23T15:39:43.254Z,38
2019-02-23T15:44:43.404Z,49
2019-02-23T15:49:43.418Z,32
2019-02-23T15:54:43.411Z,39
2019-02-23T15:59:44.515Z,38
2019-02-23T16:04:43.180Z,40
2019-02-23T16:09:43.041Z,33
2019-02-23T16:14:43.352Z,32
2019-02-23T16:19:43.268Z,30
2019-02-23T16:24:43.038Z,39
2019-02-23T16:29:43.062Z,29
2019-02-23T16:34:43.020Z,32
2019-02-23T16:39:43.107Z,53
2019-02-23T16:44:43.042Z,36
2019-02-23T16:49:42.953Z,30
2019-02-23T16:54:42.988Z,38
2019-02-23T16:59:43.109Z,39
2019-02-23T17:04:53.061Z,47
2019-02-23T17:09:42.999Z,41
2019-02-23T17:14:42.921Z,40
2019-02-23T17:19:43.024Z,29
2019-02-23T17:24:42.955Z,36
2019-02-23T17:29:43.122Z,29
2019-02-23T17:34:42.957Z,28
2019-02-23T17:39:43.172Z,33
2019-02-23T17:44:43.128Z,32
2019-02-23T17:49:43.034Z,33
2019-02-23T17:54:43.104Z,29
2019-02-23T17:59:43.042Z,33
2019-02-23T18:04:42.986Z,34
2019-02-23T18:11:01.091Z,35
2019-02-23T18:14:42.928Z,33
2019-02-23T18:19:42.842Z,38
2019-02-23T18:24:42.894Z,31
2019-02-23T18:29:42.866Z,36
2019-02-23T18:34:43.149Z,37
2019-02-23T18:39:42.827Z,33
2019-02-23T18:44:42.988Z,35
2019-02-23T18:49:43.109Z,33
2019-02-23T18:54:42.824Z,36
2019-02-23T18:59:42.816Z,50
2019-02-23T19:04:43.046Z,38
2019-02-23T19:09:42.822Z,30
2019-02-23T19:14:42.967Z,42
2019-02-23T19:19:42.882Z,32
2019-02-23T19:24:43.014Z,41
2019-02-23T19:29:43.038Z,35
2019-02-23T19:34:42.721Z,45
2019-02-23T19:39:42.827Z,41
2019-02-23T19:44:42.923Z,42
2019-02-23T19:49:42.931Z,38
2019-02-23T19:54:42.991Z,39
2019-02-23T19:59:42.837Z,41
2019-02-23T20:04:42.906Z,41
2019-02-23T20:09:42.765Z,35
2019-02-23T20:14:42.674Z,40
2019-02-23T20:19:42.864Z,44
2019-02-23T20:24:42.677Z,43
2019-02-23T20:29:42.796Z,45
2019-02-23T20:34:42.794Z,43
2019-02-23T20:39:53.193Z,48
2019-02-23T20:44:42.755Z,38
2019-02-23T20:49:42.871Z,40
2019-02-23T20:54:43.870Z,39
2019-02-23T20:59:42.959Z,42
2019-02-23T21:04:42.697Z,36
2019-02-23T21:09:42.632Z,38
2019-02-23T21:14:42.890Z,37
2019-02-23T21:19:42.691Z,37
2019-02-23T21:24:42.618Z,41
2019-02-23T21:29:42.653Z,41
2019-02-23T21:34:42.679Z,39
2019-02-23T21:39:42.647Z,36
2019-02-23T21:44:42.640Z,31
2019-02-23T21:49:42.621Z,37
2019-02-23T21:54:42.818Z,34
2019-02-23T21:59:42.766Z,43
2019-02-23T22:04:42.836Z,46
2019-02-23T22:09:42.729Z,36
2019-02-23T22:14:42.489Z,41
2019-02-23T22:19:42.673Z,46
2019-02-23T22:24:42.724Z,36
2019-02-23T22:29:42.534Z,43
2019-02-23T22:34:42.501Z,34
2019-02-23T22:39:42.482Z,41
2019-02-23T22:44:42.521Z,42
2019-02-23T22:49:42.449Z,43
2019-02-23T22:54:42.491Z,48
2019-02-23T22:59:42.734Z,48
2019-02-23T23:04:42.679Z,33
2019-02-23T23:09:42.452Z,38
2019-02-23T23:14:42.729Z,41
2019-02-23T23:19:42.493Z,37
2019-02-23T23:24:42.650Z,43
2019-02-23T23:29:42.779Z,39
2019-02-23T23:34:42.414Z,47
2019-02-23T23:39:42.647Z,42
2019-02-23T23:44:42.581Z,37
2019-02-23T23:49:42.652Z,42
2019-02-23T23:54:42.380Z,42
2019-02-23T23:59:42.416Z,32
